Time;durP1;ratioP1;P1;durP2;ratioP2;P2;SDS_P1;SDS_P2;PMS_P1;PMS_P2;Temp;Humidity;BMP_temperature;BMP_pressure;BME280_temperature;BME280_humidity;BME280_pressure;Samples;Min_cycle;Max_cycle;Signal;HPM_P1;HPM_P2
2022/03/18 00:02:24;;;;;;;12.35;5.95;;;8.90;99.90;;;;;;5104469;27;20067;-77
2022/03/18 00:04:51;;;;;;;13.30;5.35;;;7.80;99.90;;;;;;5095209;28;20028;-83
2022/03/18 00:07:19;;;;;;;13.48;5.82;;;7.90;99.90;;;;;;5102739;28;20123;-80
2022/03/18 00:09:46;;;;;;;17.08;6.10;;;7.60;99.90;;;;;;5103362;28;20028;-85
2022/03/18 00:12:12;;;;;;;15.65;5.45;;;7.60;99.90;;;;;;5103476;28;20136;-85
2022/03/18 00:14:41;;;;;;;11.93;4.80;;;7.60;99.90;;;;;;5100223;28;20031;-85
2022/03/18 00:17:08;;;;;;;13.10;4.53;;;7.60;99.90;;;;;;5105193;28;20020;-81
2022/03/18 00:19:35;;;;;;;12.35;4.07;;;7.60;99.90;;;;;;5100296;28;20028;-85
2022/03/18 00:22:01;;;;;;;9.63;3.58;;;7.70;99.90;;;;;;5097971;28;20066;-85
2022/03/18 00:24:32;;;;;;;15.63;3.80;;;7.80;99.90;;;;;;5106050;28;20084;-84
2022/03/18 00:26:58;;;;;;;13.07;3.75;;;7.90;99.90;;;;;;5105948;28;20107;-81
2022/03/18 00:29:25;;;;;;;8.98;3.25;;;7.90;99.90;;;;;;5111892;27;20035;-84
2022/03/18 00:31:52;;;;;;;6.93;3.35;;;8.00;99.90;;;;;;5109322;28;20651;-86
2022/03/18 00:34:18;;;;;;;9.63;3.70;;;8.00;99.90;;;;;;5105491;28;20114;-84
2022/03/18 00:36:44;;;;;;;7.60;3.30;;;7.60;99.90;;;;;;5109299;28;20043;-86
2022/03/18 00:39:09;;;;;;;6.90;3.38;;;8.00;99.90;;;;;;5107976;28;20515;-87
2022/03/18 00:41:35;;;;;;;8.43;2.95;;;;;;;;;;5106835;28;20035;-85
2022/03/18 00:44:02;;;;;;;6.03;3.15;;;7.90;99.90;;;;;;5110508;27;20107;-88
2022/03/18 00:46:28;;;;;;;7.80;2.90;;;8.00;99.90;;;;;;5110201;28;20020;-83
2022/03/18 00:54:23;;;;;;;11.30;3.53;;;7.90;99.90;;;;;;5103309;28;20073;-87
2022/03/18 00:56:49;;;;;;;8.25;3.55;;;7.90;99.90;;;;;;5099550;28;20436;-86
2022/03/18 00:59:15;;;;;;;8.60;2.78;;;8.00;99.90;;;;;;5106789;28;20050;-83
2022/03/18 01:01:41;;;;;;;13.25;3.33;;;7.70;99.90;;;;;;5103930;28;20034;-83
2022/03/18 01:04:07;;;;;;;10.07;3.08;;;7.70;99.90;;;;;;5099840;28;20489;-80
2022/03/18 01:06:35;;;;;;;11.23;3.15;;;7.60;99.90;;;;;;5110910;28;20107;-86
2022/03/18 01:09:04;;;;;;;8.63;2.75;;;7.60;99.90;;;;;;5103655;28;20031;-86
2022/03/18 01:11:31;;;;;;;11.63;3.17;;;7.80;99.90;;;;;;5107072;28;20558;-86
2022/03/18 01:13:58;;;;;;;10.63;2.90;;;7.50;99.90;;;;;;5108078;28;20063;-87
2022/03/18 01:16:24;;;;;;;7.50;3.03;;;7.70;99.90;;;;;;5107838;28;20556;-83
2022/03/18 01:18:49;;;;;;;7.93;2.72;;;8.20;99.90;;;;;;5113197;28;20391;-85
2022/03/18 01:21:15;;;;;;;10.07;3.00;;;7.90;99.90;;;;;;5098448;28;20062;-85
2022/03/18 01:23:41;;;;;;;8.02;3.10;;;8.50;99.90;;;;;;5109892;28;20024;-85
2022/03/18 01:26:07;;;;;;;7.35;2.90;;;7.80;99.90;;;;;;5115928;28;20020;-84
2022/03/18 01:28:32;;;;;;;7.97;2.80;;;7.90;99.90;;;;;;5105260;28;20087;-84
2022/03/18 01:30:58;;;;;;;9.40;2.72;;;8.10;99.90;;;;;;5106696;28;20028;-84
2022/03/18 01:33:24;;;;;;;10.05;3.17;;;8.10;99.90;;;;;;5105206;28;20032;-83
2022/03/18 01:35:50;;;;;;;9.95;3.00;;;8.30;99.90;;;;;;5111701;28;20020;-85
2022/03/18 01:38:16;;;;;;;10.35;2.95;;;8.10;99.90;;;;;;5107663;28;20027;-85
2022/03/18 01:40:42;;;;;;;7.78;2.80;;;;;;;;;;5111750;28;20071;-85
2022/03/18 01:43:11;;;;;;;11.27;3.08;;;8.00;99.90;;;;;;5109341;28;20069;-84
2022/03/18 01:45:37;;;;;;;12.25;3.13;;;8.00;99.90;;;;;;5115000;28;20641;-88
2022/03/18 01:48:04;;;;;;;6.25;2.70;;;8.30;99.90;;;;;;5108660;28;20040;-82
2022/03/18 01:50:30;;;;;;;19.25;5.25;;;8.10;99.90;;;;;;5119386;27;20051;-86
2022/03/18 01:52:57;;;;;;;8.25;2.95;;;7.90;99.90;;;;;;5107737;27;20073;-85
2022/03/18 01:55:24;;;;;;;8.40;2.90;;;7.80;99.90;;;;;;5108224;28;20035;-86
2022/03/18 01:57:50;;;;;;;11.60;3.47;;;7.80;99.90;;;;;;5113422;27;20042;-83
2022/03/18 02:00:19;;;;;;;7.35;2.95;;;7.90;99.90;;;;;;5113847;28;20052;-81
2022/03/18 02:02:48;;;;;;;11.23;3.00;;;8.00;99.90;;;;;;5121483;28;20028;-86
2022/03/18 02:05:14;;;;;;;12.35;3.55;;;8.00;99.90;;;;;;5118350;27;20035;-81
2022/03/18 02:07:40;;;;;;;11.85;3.17;;;7.90;99.90;;;;;;5110289;28;20061;-84
2022/03/18 02:10:07;;;;;;;9.73;3.13;;;7.90;99.90;;;;;;5108303;28;20147;-83
2022/03/18 02:12:32;;;;;;;5.68;3.05;;;7.80;99.90;;;;;;5103303;28;20040;-82
2022/03/18 02:14:59;;;;;;;10.25;3.38;;;7.70;99.90;;;;;;5105206;28;20032;-78
2022/03/18 02:17:24;;;;;;;9.10;3.00;;;7.70;99.90;;;;;;5108336;28;20035;-81
2022/03/18 02:19:50;;;;;;;9.48;3.00;;;8.30;99.90;;;;;;5111121;27;20425;-80
2022/03/18 02:22:20;;;;;;;8.98;2.72;;;7.80;99.90;;;;;;5117828;27;20221;-86
2022/03/18 02:24:48;;;;;;;9.20;2.80;;;5.90;99.90;;;;;;5103782;28;20507;-84
2022/03/18 02:27:14;;;;;;;11.32;3.25;;;7.60;99.90;;;;;;5107496;27;20028;-85
2022/03/18 02:29:41;;;;;;;9.98;3.20;;;7.60;99.90;;;;;;5101374;28;20372;-83
2022/03/18 02:32:08;;;;;;;11.32;3.00;;;7.60;99.90;;;;;;5104521;28;20096;-83
2022/03/18 02:34:35;;;;;;;6.25;2.85;;;7.60;99.90;;;;;;5108237;28;20101;-84
2022/03/18 02:37:01;;;;;;;10.70;3.45;;;7.50;99.90;;;;;;5099394;28;20028;-81
2022/03/18 02:39:27;;;;;;;9.38;2.90;;;7.60;99.90;;;;;;5102357;28;20020;-82
2022/03/18 02:41:53;;;;;;;11.18;3.38;;;7.50;99.90;;;;;;5111733;27;20103;-88
2022/03/18 02:44:19;;;;;;;8.85;3.33;;;7.50;99.90;;;;;;5105742;27;20455;-87
2022/03/18 02:46:45;;;;;;;8.10;3.17;;;7.50;99.90;;;;;;5107859;27;20036;-82
2022/03/18 02:49:11;;;;;;;9.00;3.30;;;8.40;99.90;;;;;;5103554;28;20040;-83
2022/03/18 02:51:37;;;;;;;12.32;3.35;;;7.40;99.90;;;;;;5103417;28;20024;-81
2022/03/18 02:54:07;;;;;;;9.63;3.10;;;7.40;99.90;;;;;;5097593;28;20020;-86
2022/03/18 02:56:34;;;;;;;9.27;3.13;;;8.50;99.90;;;;;;5105469;28;20031;-83
2022/03/18 02:59:01;;;;;;;6.47;2.42;;;7.40;99.90;;;;;;5090416;28;20028;-81
2022/03/18 03:01:27;;;;;;;11.45;3.10;;;7.60;99.90;;;;;;5092560;27;20033;-81
2022/03/18 03:03:54;;;;;;;8.73;3.10;;;7.30;99.90;;;;;;5097739;27;20028;-86
2022/03/18 03:09:03;;;;;;;7.88;3.35;;;7.50;99.90;;;;;;5102230;28;20060;-85
2022/03/18 03:11:29;;;;;;;10.98;2.92;;;7.60;99.90;;;;;;5101370;28;20107;-84
2022/03/18 03:13:55;;;;;;;8.27;2.83;;;8.60;99.90;;;;;;5100849;28;20032;-82
2022/03/18 03:16:21;;;;;;;10.80;3.17;;;7.50;99.90;;;;;;5103351;27;20134;-79
2022/03/18 03:18:48;;;;;;;9.20;4.07;;;7.40;99.90;;;;;;5102136;27;20060;-82
2022/03/18 03:21:15;;;;;;;8.80;2.92;;;7.50;99.90;;;;;;5103138;27;20471;-83
2022/03/18 03:23:41;;;;;;;6.15;2.33;;;8.00;99.90;;;;;;5103154;28;20027;-83
2022/03/18 03:26:08;;;;;;;8.30;2.90;;;7.60;99.90;;;;;;5107673;28;20081;-84
2022/03/18 03:28:33;;;;;;;13.07;3.03;;;7.50;99.90;;;;;;5103869;28;20032;-82
2022/03/18 03:31:00;;;;;;;11.43;3.20;;;7.40;99.90;;;;;;5100527;28;20480;-80
2022/03/18 03:33:26;;;;;;;10.93;3.65;;;7.40;99.90;;;;;;5107205;28;20061;-85
2022/03/18 03:35:53;;;;;;;7.15;2.97;;;7.60;99.90;;;;;;5099568;28;20059;-80
2022/03/18 03:38:21;;;;;;;11.98;3.17;;;7.70;99.90;;;;;;5103470;27;20039;-83
2022/03/18 03:40:47;;;;;;;7.95;3.03;;;7.70;99.90;;;;;;5102126;28;20020;-86
2022/03/18 03:43:13;;;;;;;9.93;3.33;;;7.60;99.90;;;;;;5108647;27;20369;-85
2022/03/18 03:45:40;;;;;;;7.70;3.17;;;7.60;99.90;;;;;;5102006;28;20035;-84
2022/03/18 03:48:06;;;;;;;12.30;3.08;;;7.50;99.90;;;;;;5101914;28;20031;-85
2022/03/18 03:50:33;;;;;;;8.77;3.15;;;7.40;99.90;;;;;;5106636;27;20039;-81
2022/03/18 03:52:59;;;;;;;10.07;3.65;;;7.50;99.90;;;;;;5105344;28;20468;-85
2022/03/18 03:55:24;;;;;;;10.63;3.33;;;7.60;99.90;;;;;;5108382;27;20055;-83
2022/03/18 03:57:50;;;;;;;9.60;3.72;;;8.40;99.90;;;;;;5103720;28;20024;-84
2022/03/18 04:00:16;;;;;;;10.18;3.30;;;8.70;99.90;;;;;;5100104;27;20031;-86
2022/03/18 04:02:43;;;;;;;9.50;2.92;;;7.40;99.90;;;;;;5101518;28;20016;-83
2022/03/18 04:05:10;;;;;;;12.98;3.22;;;7.80;99.90;;;;;;5103812;28;20488;-83
2022/03/18 04:07:37;;;;;;;13.77;3.50;;;7.60;99.90;;;;;;5101568;28;20038;-84
2022/03/18 04:10:04;;;;;;;11.75;2.90;;;7.50;99.90;;;;;;5102008;27;20028;-84
2022/03/18 04:12:32;;;;;;;8.90;3.00;;;7.40;99.90;;;;;;5106477;27;20028;-84
2022/03/18 04:15:05;;;;;;;9.48;3.33;;;7.30;99.90;;;;;;5099712;28;20032;-85
2022/03/18 04:17:43;;;;;;;10.13;3.70;;;7.30;99.90;;;;;;5104024;27;20555;-85
2022/03/18 04:20:10;;;;;;;9.80;2.78;;;7.30;99.90;;;;;;5103694;27;20068;-85
2022/03/18 04:22:37;;;;;;;14.45;4.80;;;7.20;99.90;;;;;;5103488;28;20046;-86
2022/03/18 04:25:03;;;;;;;10.40;3.40;;;7.30;99.90;;;;;;5102769;28;20055;-85
2022/03/18 04:27:28;;;;;;;8.63;3.22;;;7.40;99.90;;;;;;5103254;28;20376;-85
2022/03/18 04:29:55;;;;;;;8.27;2.90;;;7.40;99.90;;;;;;5104576;28;20038;-84
2022/03/18 04:32:20;;;;;;;5.82;3.10;;;7.40;99.90;;;;;;5108457;27;20590;-86
2022/03/18 04:34:46;;;;;;;9.02;2.97;;;;;;;;;;5102203;28;20095;-84
2022/03/18 04:37:12;;;;;;;8.80;3.38;;;7.20;99.90;;;;;;5106233;28;20082;-81
2022/03/18 04:39:38;;;;;;;13.73;3.65;;;7.50;99.90;;;;;;5098762;28;20563;-85
2022/03/18 04:42:04;;;;;;;9.77;3.00;;;7.20;99.90;;;;;;5094663;28;20024;-81
2022/03/18 04:44:30;;;;;;;8.98;3.53;;;7.40;99.90;;;;;;5103250;28;20031;-87
2022/03/18 04:46:55;;;;;;;15.27;3.50;;;7.10;99.90;;;;;;5105924;28;20392;-84
2022/03/18 04:49:21;;;;;;;8.98;2.83;;;7.30;99.90;;;;;;5102840;28;20035;-84
2022/03/18 04:51:47;;;;;;;8.32;3.20;;;8.30;99.90;;;;;;5105957;28;20115;-86
2022/03/18 04:54:12;;;;;;;12.10;3.80;;;7.40;99.90;;;;;;5099843;28;20550;-84
2022/03/18 04:59:23;;;;;;;9.02;3.58;;;8.90;99.90;;;;;;5102035;28;20066;-84
2022/03/18 05:01:48;;;;;;;7.88;3.38;;;7.30;99.90;;;;;;5097772;28;20024;-85
2022/03/18 05:04:14;;;;;;;9.82;3.78;;;7.40;99.90;;;;;;5101506;28;20110;-81
2022/03/18 05:06:40;;;;;;;7.70;3.80;;;7.20;99.90;;;;;;5099001;28;20063;-83
2022/03/18 05:09:06;;;;;;;10.73;3.03;;;7.10;99.90;;;;;;5105879;28;20042;-81
2022/03/18 05:11:32;;;;;;;9.48;2.78;;;7.00;99.90;;;;;;5110281;28;20469;-84
2022/03/18 05:13:58;;;;;;;8.30;3.50;;;7.10;99.90;;;;;;5108631;28;20028;-88
2022/03/18 05:16:25;;;;;;;12.40;3.60;;;7.20;99.90;;;;;;5112121;28;20036;-85
2022/03/18 05:18:54;;;;;;;7.57;3.00;;;8.00;99.90;;;;;;5100786;28;20034;-85
2022/03/18 05:21:20;;;;;;;9.35;3.75;;;7.10;99.90;;;;;;5099246;28;20089;-86
2022/03/18 05:23:49;;;;;;;10.05;3.22;;;7.20;99.90;;;;;;5100211;28;20543;-85
2022/03/18 05:26:18;;;;;;;9.25;3.20;;;7.20;99.90;;;;;;5099703;28;20031;-87
2022/03/18 05:28:46;;;;;;;12.23;3.58;;;7.10;99.90;;;;;;5102339;28;20051;-84
2022/03/18 05:31:12;;;;;;;10.18;3.30;;;;;;;;;;5099768;28;20050;-86
2022/03/18 05:33:38;;;;;;;11.95;3.70;;;;;;;;;;5099511;28;20032;-86
2022/03/18 05:36:04;;;;;;;9.55;3.03;;;7.10;99.90;;;;;;5115599;28;20046;-85
2022/03/18 05:38:33;;;;;;;13.20;3.25;;;7.20;99.90;;;;;;5116445;28;20492;-82
2022/03/18 05:40:59;;;;;;;10.48;3.58;;;7.20;99.90;;;;;;5098378;28;20027;-86
2022/03/18 05:43:25;;;;;;;10.50;3.40;;;;;;;;;;5104329;28;20019;-82
2022/03/18 05:45:51;;;;;;;9.13;3.47;;;7.10;99.90;;;;;;5119059;28;20031;-83
2022/03/18 05:48:16;;;;;;;11.68;4.47;;;7.10;99.90;;;;;;5110374;28;20058;-80
2022/03/18 05:50:42;;;;;;;8.68;3.70;;;;;;;;;;5106922;28;20023;-86
2022/03/18 05:53:09;;;;;;;15.27;3.92;;;7.10;99.90;;;;;;5120124;28;20426;-86
2022/03/18 05:58:21;;;;;;;14.10;3.50;;;7.70;99.90;;;;;;5121829;28;20064;-85
2022/03/18 06:00:48;;;;;;;11.50;3.63;;;8.30;99.90;;;;;;5105186;28;20024;-87
2022/03/18 06:03:13;;;;;;;8.80;3.30;;;7.40;99.90;;;;;;5082076;28;20092;-82
2022/03/18 06:05:40;;;;;;;10.20;3.13;;;7.20;99.90;;;;;;5099567;28;20498;-84
2022/03/18 06:13:34;;;;;;;14.48;4.00;;;;;;;;;;5110414;28;20053;-82
2022/03/18 06:16:00;;;;;;;9.93;3.40;;;7.20;99.90;;;;;;5108232;28;20032;-84
2022/03/18 06:18:26;;;;;;;8.25;3.65;;;;;;;;;;5119611;28;20110;-86
2022/03/18 06:20:52;;;;;;;16.88;3.83;;;7.20;99.90;;;;;;5102950;28;20032;-83
2022/03/18 06:23:18;;;;;;;12.60;3.88;;;7.30;99.90;;;;;;5098828;28;20024;-85
2022/03/18 06:25:46;;;;;;;6.43;2.85;;;;;;;;;;5098953;28;20024;-83
2022/03/18 06:28:12;;;;;;;13.35;3.88;;;7.40;99.90;;;;;;5117045;28;20096;-84
2022/03/18 06:30:41;;;;;;;9.32;3.58;;;5.90;99.90;;;;;;5109888;28;20028;-86
2022/03/18 06:33:10;;;;;;;10.60;3.40;;;;;;;;;;5112387;28;20020;-86
2022/03/18 06:35:35;;;;;;;10.52;3.30;;;7.20;99.90;;;;;;5106723;28;20024;-86
2022/03/18 06:38:01;;;;;;;12.57;4.93;;;7.40;99.90;;;;;;5118778;28;20015;-82
2022/03/18 06:42:58;;;;;;;;;;;7.50;99.90;;;;;;5014486;28;20127;-81
2022/03/18 06:45:30;;;;;;;7.07;3.10;;;7.60;99.90;;;;;;5015895;28;19921;-85
2022/03/18 06:48:02;;;;;;;8.23;3.08;;;7.50;99.90;;;;;;4999442;28;20030;-85
2022/03/18 06:50:29;;;;;;;7.05;3.42;;;7.60;99.90;;;;;;4998877;28;20029;-81
2022/03/18 06:52:55;;;;;;;11.48;3.72;;;7.60;99.90;;;;;;4991815;28;20035;-83
2022/03/18 06:55:21;;;;;;;13.10;3.88;;;7.60;99.90;;;;;;4988491;28;20034;-82
2022/03/18 06:57:47;;;;;;;11.27;3.58;;;7.70;99.90;;;;;;4991823;28;20114;-82
2022/03/18 07:00:14;;;;;;;14.75;4.00;;;7.70;99.90;;;;;;4990292;28;20082;-82
2022/03/18 07:02:41;;;;;;;9.68;3.67;;;7.70;99.90;;;;;;4989463;28;20018;-85
2022/03/18 07:05:08;;;;;;;11.65;3.25;;;7.90;99.90;;;;;;4991987;28;20030;-82
2022/03/18 07:07:36;;;;;;;9.43;3.78;;;7.80;99.90;;;;;;4990104;28;20097;-82
2022/03/18 07:10:03;;;;;;;7.15;3.03;;;7.80;99.90;;;;;;4992158;28;20042;-82
2022/03/18 07:12:30;;;;;;;9.18;3.25;;;7.80;99.90;;;;;;4986860;28;20042;-81
2022/03/18 07:14:56;;;;;;;6.45;3.35;;;9.60;99.90;;;;;;4986793;28;20085;-83
2022/03/18 07:20:08;;;;;;;9.30;3.30;;;7.80;99.90;;;;;;4990546;28;20553;-79
2022/03/18 07:22:33;;;;;;;7.47;3.05;;;7.90;99.90;;;;;;4988955;28;20022;-81
2022/03/18 07:25:00;;;;;;;10.45;3.75;;;7.90;99.90;;;;;;4990882;28;20033;-81
2022/03/18 07:27:26;;;;;;;12.65;3.88;;;7.80;99.90;;;;;;4989786;28;20030;-82
2022/03/18 07:29:52;;;;;;;9.95;3.08;;;8.00;99.90;;;;;;4995559;28;20034;-83
2022/03/18 07:32:19;;;;;;;11.80;3.78;;;7.90;99.90;;;;;;4994982;28;20034;-79
2022/03/18 07:34:44;;;;;;;10.95;3.35;;;7.90;99.90;;;;;;4992179;28;20038;-85
2022/03/18 07:37:11;;;;;;;11.80;3.35;;;8.00;99.90;;;;;;5011329;28;20042;-81
2022/03/18 07:39:37;;;;;;;10.60;4.70;;;8.70;99.90;;;;;;4992043;28;20478;-79
2022/03/18 07:42:04;;;;;;;7.75;2.90;;;8.10;99.90;;;;;;4987812;28;20042;-83
2022/03/18 07:44:37;;;;;;;7.65;3.55;;;8.20;99.90;;;;;;4994370;28;20050;-84
2022/03/18 07:47:09;;;;;;;9.23;3.40;;;8.20;99.90;;;;;;4982529;28;20105;-84
2022/03/18 07:49:37;;;;;;;6.78;3.25;;;8.20;99.90;;;;;;4988561;28;20029;-87
2022/03/18 07:52:04;;;;;;;10.52;3.83;;;8.20;99.90;;;;;;4998258;28;20869;-84
2022/03/18 07:54:31;;;;;;;11.45;3.90;;;8.20;99.90;;;;;;4982235;28;20121;-85
2022/03/18 07:57:00;;;;;;;6.40;3.20;;;8.40;99.90;;;;;;4994574;28;20054;-82
2022/03/18 07:59:28;;;;;;;9.00;3.45;;;8.40;99.90;;;;;;5001573;28;20022;-81
2022/03/18 08:01:57;;;;;;;9.50;3.45;;;8.40;99.90;;;;;;4981817;28;20038;-82
2022/03/18 08:04:23;;;;;;;8.80;3.60;;;8.40;99.90;;;;;;4980147;28;20498;-84
2022/03/18 08:06:50;;;;;;;11.73;3.13;;;8.40;99.90;;;;;;4981234;28;20030;-85
2022/03/18 08:09:17;;;;;;;12.90;3.60;;;8.40;99.90;;;;;;4987187;28;20034;-84
2022/03/18 08:11:43;;;;;;;9.57;3.63;;;8.40;99.90;;;;;;4989081;28;20106;-85
2022/03/18 08:14:09;;;;;;;9.20;2.92;;;8.40;99.90;;;;;;5001592;28;20465;-84
2022/03/18 08:16:35;;;;;;;12.23;3.83;;;8.40;99.90;;;;;;4984815;28;20088;-84
2022/03/18 08:19:01;;;;;;;9.02;3.88;;;;;;;;;;4978736;28;20018;-82
2022/03/18 08:21:27;;;;;;;13.02;3.83;;;8.50;99.90;;;;;;4977068;28;20491;-81
2022/03/18 08:23:52;;;;;;;11.30;4.35;;;8.60;99.90;;;;;;4980413;28;20164;-86
2022/03/18 08:26:18;;;;;;;13.18;3.60;;;8.60;99.90;;;;;;4982242;28;20479;-86
2022/03/18 08:28:44;;;;;;;7.80;3.50;;;8.70;99.90;;;;;;4982015;28;20398;-88
2022/03/18 08:31:10;;;;;;;9.63;3.65;;;;;;;;;;4992136;28;20821;-87
2022/03/18 08:33:36;;;;;;;12.77;3.47;;;8.80;99.90;;;;;;4983784;28;20034;-85
2022/03/18 08:36:02;;;;;;;11.30;3.42;;;8.90;99.90;;;;;;4997438;28;20038;-83
2022/03/18 08:38:27;;;;;;;10.23;4.55;;;8.90;99.90;;;;;;5000750;28;20006;-85
2022/03/18 08:40:53;;;;;;;12.55;4.03;;;8.80;99.90;;;;;;4989845;28;20069;-85
2022/03/18 08:43:19;;;;;;;11.65;3.20;;;9.10;99.90;;;;;;4979927;28;20026;-82
2022/03/18 08:45:45;;;;;;;8.18;3.47;;;8.90;99.90;;;;;;4983921;28;20442;-83
2022/03/18 08:48:10;;;;;;;9.65;3.33;;;8.90;99.90;;;;;;4980454;28;20046;-84
2022/03/18 08:50:37;;;;;;;8.80;3.45;;;8.80;99.90;;;;;;4979381;28;20023;-83
2022/03/18 08:53:09;;;;;;;11.18;3.60;;;8.90;99.90;;;;;;4980873;28;20030;-81
2022/03/18 08:55:35;;;;;;;9.75;3.40;;;9.00;99.90;;;;;;4997667;28;20053;-82
2022/03/18 08:58:01;;;;;;;10.13;4.30;;;9.30;99.90;;;;;;4979913;28;20262;-82
2022/03/18 09:00:27;;;;;;;11.52;3.50;;;8.90;99.90;;;;;;4985242;28;20060;-83
2022/03/18 09:02:53;;;;;;;9.40;4.13;;;10.50;99.90;;;;;;4977894;28;20057;-85
2022/03/18 09:05:19;;;;;;;11.35;4.18;;;9.00;99.90;;;;;;4979482;28;20026;-85
2022/03/18 09:07:45;;;;;;;9.75;4.03;;;9.00;99.90;;;;;;4991472;28;20034;-84
2022/03/18 09:10:12;;;;;;;11.27;4.03;;;9.10;99.90;;;;;;4973151;28;20030;-84
2022/03/18 09:12:48;;;;;;;11.57;4.43;;;9.30;99.90;;;;;;4975178;28;20053;-88
2022/03/18 09:15:16;;;;;;;9.40;3.85;;;9.40;99.90;;;;;;4995695;28;20026;-84
2022/03/18 09:17:42;;;;;;;14.07;4.72;;;9.50;99.90;;;;;;4976906;28;20030;-84
2022/03/18 09:20:08;;;;;;;7.90;4.15;;;9.40;99.90;;;;;;4999594;28;20022;-85
2022/03/18 09:22:34;;;;;;;11.20;4.40;;;9.50;99.90;;;;;;4979735;28;20041;-89
2022/03/18 09:24:59;;;;;;;14.68;4.75;;;9.80;99.90;;;;;;4981717;28;20022;-88
2022/03/18 09:27:28;;;;;;;11.13;4.50;;;9.80;99.90;;;;;;4974687;28;20027;-85
2022/03/18 09:29:54;;;;;;;11.70;4.53;;;9.80;99.90;;;;;;4978716;28;20034;-85
2022/03/18 09:32:19;;;;;;;12.32;5.38;;;9.80;99.90;;;;;;4976896;28;20510;-80
2022/03/18 09:34:45;;;;;;;11.57;5.18;;;9.90;99.90;;;;;;4980169;28;20498;-82
2022/03/18 09:37:16;;;;;;;10.25;4.80;;;9.90;99.90;;;;;;4973299;28;20526;-87
2022/03/18 09:39:42;;;;;;;12.40;4.45;;;9.80;99.90;;;;;;4978831;28;20028;-84
2022/03/18 09:42:08;;;;;;;11.45;5.18;;;10.00;99.90;;;;;;4993511;28;20022;-84
2022/03/18 09:44:38;;;;;;;8.98;4.85;;;9.80;99.90;;;;;;4981454;28;20510;-82
2022/03/18 09:47:06;;;;;;;11.93;4.80;;;10.10;99.90;;;;;;4979425;28;20085;-85
2022/03/18 09:49:33;;;;;;;8.55;4.40;;;10.10;99.90;;;;;;4978180;28;20038;-81
2022/03/18 09:51:59;;;;;;;10.40;5.13;;;10.10;99.90;;;;;;4979818;28;20541;-80
2022/03/18 09:54:26;;;;;;;11.65;5.78;;;10.70;99.90;;;;;;4986667;28;20030;-83
2022/03/18 09:56:59;;;;;;;12.73;5.97;;;10.10;99.90;;;;;;4979116;28;20475;-84
2022/03/18 09:59:27;;;;;;;12.20;5.60;;;10.10;99.90;;;;;;4976617;28;20022;-83
2022/03/18 10:02:22;;;;;;;12.63;5.75;;;10.40;99.90;;;;;;4978746;28;20036;-84
2022/03/18 10:04:52;;;;;;;10.73;5.47;;;10.60;99.90;;;;;;4984883;28;20040;-87
2022/03/18 10:07:18;;;;;;;16.10;6.78;;;10.70;99.90;;;;;;4978946;28;20065;-81
2022/03/18 10:09:44;;;;;;;13.90;6.25;;;10.90;99.90;;;;;;4980300;28;20034;-82
2022/03/18 10:12:31;;;;;;;15.15;5.78;;;11.00;99.90;;;;;;4979455;28;20045;-80
2022/03/18 10:15:25;;;;;;;10.93;5.50;;;11.20;99.90;;;;;;4982393;28;20053;-85
2022/03/18 10:17:54;;;;;;;15.98;6.90;;;11.20;99.90;;;;;;4975573;28;20034;-84
2022/03/18 10:20:33;;;;;;;11.50;6.25;;;11.40;99.90;;;;;;4984218;28;20029;-86
2022/03/18 10:23:20;;;;;;;14.20;6.32;;;11.40;99.90;;;;;;4976770;28;20023;-81
2022/03/18 10:25:53;;;;;;;12.95;6.03;;;11.60;99.90;;;;;;5000439;28;20031;-83
2022/03/18 10:28:36;;;;;;;14.27;6.80;;;11.70;99.90;;;;;;4983775;28;20116;-81
2022/03/18 10:31:35;;;;;;;13.32;6.47;;;11.70;99.90;;;;;;4997339;28;20053;-81
2022/03/18 10:37:04;;;;;;;13.10;6.60;;;12.10;99.90;;;;;;4995016;28;20057;-82
2022/03/18 10:39:37;;;;;;;12.25;6.47;;;11.90;99.90;;;;;;4994047;28;20444;-82
2022/03/18 10:42:09;;;;;;;12.68;6.68;;;11.90;99.90;;;;;;4987869;28;20038;-83
2022/03/18 10:44:58;;;;;;;15.07;7.18;;;11.80;99.90;;;;;;5005133;28;20501;-83
2022/03/18 10:47:38;;;;;;;13.63;6.30;;;11.70;99.90;;;;;;5000694;28;20100;-83
2022/03/18 10:50:29;;;;;;;15.60;7.07;;;11.70;99.90;;;;;;4995435;28;20117;-86
2022/03/18 10:53:02;;;;;;;13.68;7.28;;;11.70;99.90;;;;;;4999073;28;20034;-83
2022/03/18 10:55:34;;;;;;;15.13;6.70;;;11.80;99.90;;;;;;4997971;28;20065;-84
2022/03/18 10:58:18;;;;;;;14.68;6.85;;;11.90;99.90;;;;;;4988851;28;20027;-83
2022/03/18 11:00:46;;;;;;;18.25;7.85;;;11.80;99.90;;;;;;5011468;28;20457;-86
2022/03/18 11:03:13;;;;;;;15.90;7.00;;;11.90;99.90;;;;;;4998184;28;20088;-83
2022/03/18 11:05:42;;;;;;;15.60;7.13;;;12.00;99.90;;;;;;4997184;28;20030;-81
2022/03/18 11:08:12;;;;;;;11.57;6.60;;;12.20;99.90;;;;;;5003683;28;20032;-84
2022/03/18 11:13:49;;;;;;;13.70;6.20;;;12.20;99.80;;;;;;4996168;28;20120;-81
2022/03/18 11:16:25;;;;;;;15.82;7.03;;;12.20;99.50;;;;;;4973409;28;20042;-81
2022/03/18 11:18:51;;;;;;;15.50;7.13;;;;;;;;;;4990002;28;20109;-85
2022/03/18 11:21:21;;;;;;;14.93;7.68;;;;;;;;;;4993815;28;20038;-79
2022/03/18 11:23:49;;;;;;;12.80;7.07;;;12.50;99.20;;;;;;5003638;28;20287;-83
2022/03/18 11:26:28;;;;;;;15.63;6.38;;;12.60;99.30;;;;;;4994883;28;20073;-86
2022/03/18 11:29:11;;;;;;;13.80;6.43;;;12.60;99.00;;;;;;4996927;28;20037;-83
2022/03/18 11:31:45;;;;;;;14.35;6.28;;;;;;;;;;5001256;28;20029;-84
2022/03/18 11:34:21;;;;;;;12.25;5.45;;;12.80;97.80;;;;;;4988836;28;20117;-81
2022/03/18 11:37:13;;;;;;;9.80;5.07;;;12.80;97.90;;;;;;4995027;28;20056;-83
2022/03/18 11:39:50;;;;;;;13.13;6.72;;;12.80;97.70;;;;;;4999629;28;20036;-84
2022/03/18 11:42:23;;;;;;;12.15;5.93;;;12.80;99.00;;;;;;4992101;28;20372;-85
2022/03/18 11:44:59;;;;;;;13.13;5.72;;;12.90;97.80;;;;;;4992061;28;20124;-83
2022/03/18 11:47:30;;;;;;;12.65;6.72;;;14.50;97.50;;;;;;4994141;28;20027;-81
2022/03/18 11:49:57;;;;;;;13.90;7.32;;;12.80;97.00;;;;;;4994508;28;20023;-86
2022/03/18 11:52:27;;;;;;;15.68;7.78;;;12.90;96.70;;;;;;4992897;28;20084;-85
2022/03/18 11:55:07;;;;;;;14.55;6.97;;;12.80;97.00;;;;;;4992378;28;20372;-85
2022/03/18 11:57:46;;;;;;;17.60;7.55;;;14.30;97.10;;;;;;4996256;28;20069;-87
2022/03/18 12:00:43;;;;;;;13.35;7.07;;;13.00;97.60;;;;;;5000767;28;20640;-84
2022/03/18 12:03:19;;;;;;;15.23;7.20;;;13.30;95.30;;;;;;5003768;28;20251;-82
2022/03/18 12:05:56;;;;;;;15.32;7.72;;;13.50;95.90;;;;;;4996779;28;20030;-83
2022/03/18 12:08:54;;;;;;;13.10;7.43;;;13.50;95.40;;;;;;4995945;28;20027;-81
2022/03/18 12:11:40;;;;;;;13.68;6.90;;;13.70;94.50;;;;;;4991073;28;20042;-82
2022/03/18 12:14:10;;;;;;;15.25;6.68;;;13.60;94.60;;;;;;4990877;28;20034;-83
2022/03/18 12:16:39;;;;;;;19.07;7.27;;;;;;;;;;4996739;28;20053;-82
2022/03/18 12:19:18;;;;;;;15.32;6.90;;;13.10;93.70;;;;;;4990566;28;20023;-83
2022/03/18 12:21:47;;;;;;;13.40;7.30;;;13.40;95.40;;;;;;4989053;28;20026;-82
2022/03/18 12:24:13;;;;;;;14.85;7.93;;;13.20;95.40;;;;;;4995147;28;20026;-83
2022/03/18 12:26:40;;;;;;;14.55;6.90;;;13.40;95.10;;;;;;4992828;28;20026;-86
2022/03/18 12:29:09;;;;;;;20.60;7.32;;;12.70;94.60;;;;;;4998318;28;20026;-85
2022/03/18 12:31:35;;;;;;;13.30;6.95;;;12.90;94.50;;;;;;4994253;28;20030;-81
2022/03/18 12:34:08;;;;;;;11.00;6.57;;;13.30;94.70;;;;;;4996818;28;20041;-85
2022/03/18 12:36:35;;;;;;;13.90;5.68;;;13.40;94.40;;;;;;4988800;28;20023;-84
2022/03/18 12:39:08;;;;;;;14.65;7.75;;;13.40;93.70;;;;;;4993905;28;20015;-84
2022/03/18 12:41:36;;;;;;;15.52;7.22;;;13.40;94.10;;;;;;4999924;23;20037;-84
2022/03/18 12:44:08;;;;;;;13.32;7.20;;;13.50;93.80;;;;;;4993840;28;20037;-87
2022/03/18 12:46:44;;;;;;;;;;;13.40;93.60;;;;;;5010037;28;20038;-87
2022/03/18 12:49:38;;;;;;;14.82;7.10;;;13.50;93.80;;;;;;5014103;28;19910;-85
2022/03/18 12:52:13;;;;;;;12.15;6.30;;;13.60;93.30;;;;;;5007182;28;20030;-87
2022/03/18 12:55:00;;;;;;;13.73;6.07;;;13.70;93.10;;;;;;5007031;28;20048;-88
2022/03/18 12:57:28;;;;;;;13.30;5.85;;;13.50;92.60;;;;;;5010743;28;20033;-85
2022/03/18 12:59:59;;;;;;;13.80;6.10;;;13.60;92.10;;;;;;5033078;28;20033;-87
2022/03/18 13:02:26;;;;;;;14.98;6.07;;;13.60;92.40;;;;;;5010427;28;20077;-88
2022/03/18 13:04:59;;;;;;;10.35;5.68;;;13.60;91.90;;;;;;4994033;28;20552;-86
2022/03/18 13:07:27;;;;;;;10.98;5.38;;;13.60;91.90;;;;;;5023770;28;20057;-84
2022/03/18 13:09:53;;;;;;;14.75;6.20;;;13.70;92.20;;;;;;5015527;28;20053;-87
2022/03/18 13:12:25;;;;;;;9.05;5.20;;;14.00;90.80;;;;;;5026360;28;20049;-88
2022/03/18 13:14:54;;;;;;;9.07;5.25;;;14.10;90.30;;;;;;5011816;28;20026;-84
2022/03/18 13:17:32;;;;;;;7.68;4.65;;;14.30;88.50;;;;;;5012952;28;20053;-88
2022/03/18 13:19:58;;;;;;;8.98;4.93;;;14.30;87.30;;;;;;5007188;28;20033;-83
2022/03/18 13:22:28;;;;;;;10.90;4.88;;;14.20;86.40;;;;;;5011133;28;20053;-89
2022/03/18 13:24:57;;;;;;;13.07;4.50;;;14.00;84.40;;;;;;5014685;28;20121;-86
2022/03/18 13:27:23;;;;;;;10.23;4.30;;;13.90;84.80;;;;;;5011144;28;20033;-86
2022/03/18 13:32:51;;;;;;;9.45;4.25;;;13.90;83.90;;;;;;5013584;28;20056;-85
2022/03/18 13:35:19;;;;;;;8.70;3.90;;;13.90;84.20;;;;;;5016281;28;20034;-87